Nearby METAR Reports


Data Updates Approximately Every Four Hours

METAR is the international standard code format for hourly surface weather observations which is analogous to the SA coding currently used in the US. The acronym roughly translates from French as Aviation Routine Weather Report. SPECI is merely the code name given to METAR formatted products which are issued on a special non-routine basis as dictated by changing meteorological conditions. The SPECI acronym roughly translates as Aviation Selected Special Weather Report.

KSLH - Cheboygan, Michigan, USA
Distance from station: W 9mi, 14km
Updated: 12/19/2018 8:55am
Clear
Clear
 Wind from S
Wind: S 3 mph , 6 km/h
Temperature: 36°F , 2°C
Dew Point: 30°F , -1°C
Humidity: 81%
Barometer: 29.80 inHg , 1009.1 hPa
Clouds: Clear
Visibility: 10 miles , 16 km
2018/12/19 13:55 KSLH 191355Z AUTO 17003KT 10SM CLR 02/M01 A2980 RMK AO2 T00151011
KMCD - Mackinac Island, Michigan, USA
Distance from station: NW 19mi, 31km
Updated: 12/19/2018 8:55am
Clear
Clear
 Wind from S
Wind: S 8 mph , 13 km/h
Temperature: 36°F , 2°C
Wind Chill: 30°F , -1°C
Dew Point: 32°F , 0°C
Humidity: 87%
Barometer: 29.79 inHg , 1008.8 hPa
Clouds: Clear
Visibility: 10 miles , 16 km
2018/12/19 13:55 KMCD 191355Z AUTO 19007KT 10SM CLR 02/00 A2979 RMK AO2 T00221005
 
KPLN - Pellston, Michigan, USA
Distance from station: WSW 24mi, 38km
Updated: 12/19/2018 8:54am
Clear
Clear
 Wind from SSW
Wind: SSW 8 mph , 13 km/h
Temperature: 37°F , 3°C
Wind Chill: 31°F , -1°C
Dew Point: 30°F , -1°C
Humidity: 75%
Barometer: 29.80 inHg , 1009.1 hPa
Clouds: Clear
Visibility: 10 miles , 16 km
2018/12/19 13:54 KPLN 191354Z AUTO 20007KT 10SM CLR 03/M01 A2980 RMK AO2 SLP100 T00281011
KPZQ - Rogers City, Michigan, USA
Distance from station: SE 31mi, 50km
Updated: 12/19/2018 8:55am
Clear
Clear
 Wind from SSW
Wind: SSW 7 mph , 11 km/h
Temperature: 32°F , 0°C
Wind Chill: 25°F , -4°C
Dew Point: 27°F , -3°C
Humidity: 80%
Barometer: 29.84 inHg , 1010.5 hPa
Clouds: Clear
Visibility: 10 miles , 16 km
2018/12/19 13:55 KPZQ 191355Z AUTO 20006KT 10SM CLR 00/M03 A2984 RMK AO2 T00001032
 
KMGN - Harbor Springs, Michigan, USA
Distance from station: WSW 32mi, 52km
Updated: 12/19/2018 8:55am
Clear
Clear
 Wind from SW
Wind: SW 6 mph , 9 km/h
Temperature: 36°F , 2°C
Wind Chill: 31°F , -1°C
Dew Point: 32°F , 0°C
Humidity: 87%
Barometer: 29.79 inHg , 1008.8 hPa
Clouds: Clear
Visibility: 10 miles , 16 km
2018/12/19 13:55 KMGN 191355Z AUTO 23005KT 10SM CLR 02/00 A2979 RMK AO2 T00261006
KDRM - Drummond Is, Michigan, USA
Distance from station: NE 36mi, 59km
Updated: 12/19/2018 8:55am
Clear
Clear
 Wind from S
Wind: S 6 mph , 9 km/h
Temperature: 36°F , 2°C
Wind Chill: 31°F , -1°C
Dew Point: 30°F , -1°C
Humidity: 81%
Barometer: 29.80 inHg , 1009.1 hPa
Clouds: Clear
Visibility: 10 miles , 16 km
2018/12/19 13:55 KDRM 191355Z AUTO 19005KT 10SM CLR 02/M01 A2980 RMK AO2 T00221007
 
KCIU - Chippewa Intl, Michigan, USA
Distance from station: N 41mi, 66km
Updated: 12/19/2018 8:56am
Mist, Clear
Mist, Clear
 Wind from S
Wind: S 5 mph , 7 km/h
Temperature: 36°F , 2°C
Wind Chill: 32°F , 0°C
Dew Point: 34°F , 1°C
Humidity: 93%
Barometer: 29.78 inHg , 1008.5 hPa
Summary: Mist
Clouds: Clear
Visibility: 5 miles , 8 km
2018/12/19 13:56 KCIU 191356Z AUTO 19004KT 5SM BR CLR 02/01 A2978 RMK AO2 SLP113 T00170006 FZRANO
KGLR - Gaylord, Michigan, USA
Distance from station: SSW 48mi, 77km
Updated: 12/19/2018 8:53am
Clear
Clear
 Wind from SSW
Wind: SSW 12 mph , 19 km/h
Temperature: 32°F , 0°C
Wind Chill: 23°F , -5°C
Dew Point: 27°F , -3°C
Humidity: 80%
Barometer: 29.80 inHg , 1009.1 hPa
Clouds: Clear
Visibility: 10 miles , 16 km
2018/12/19 13:53 KGLR 191353Z AUTO 20010KT 10SM CLR 00/M03 A2980 RMK AO2 SLP109 T00001028
 
KCVX - Charlevoix, Michigan, USA
Distance from station: WSW 52mi, 83km
Updated: 12/19/2018 8:55am
Clear
Clear
 Wind from S
Wind: S 8 mph , 13 km/h
Temperature: 37°F , 3°C
Wind Chill: 31°F , -1°C
Dew Point: 32°F , 0°C
Humidity: 81%
Barometer: 29.83 inHg , 1010.2 hPa
Clouds: Clear
Visibility: 10 miles , 16 km
2018/12/19 13:55 KCVX 191355Z AUTO 18007KT 10SM CLR 03/00 A2983 RMK AO2 T00251003
KANJ - Sault Ste Marie, Michigan, USA
Distance from station: N 56mi, 89km
Updated: 12/19/2018 8:55am
Clear
Clear
 Wind from E
Wind: E 5 mph , 7 km/h
Temperature: 28°F , -2°C
Wind Chill: 22°F , -6°C
Dew Point: 27°F , -3°C
Humidity: 93%
Barometer: 29.78 inHg , 1008.5 hPa
Clouds: Clear
Visibility: 9 miles , 14 km
2018/12/19 13:55 KANJ 191355Z AUTO 08004KT 9SM CLR M02/M03 A2978 RMK AO2 SLP093 T10171033
 
KAPN - Alpena, Michigan, USA
Distance from station: SE 56mi, 89km
Updated: 12/19/2018 8:54am
Clear
Clear
 Wind from S
Wind: S 8 mph , 13 km/h
Temperature: 32°F , 0°C
Wind Chill: 25°F , -4°C
Dew Point: 25°F , -4°C
Humidity: 75%
Barometer: 29.85 inHg , 1010.8 hPa
Clouds: Clear
Visibility: 10 miles , 16 km
2018/12/19 13:54 KAPN 191354Z AUTO 19007KT 10SM CLR 00/M04 A2985 RMK AO2 SLP118 T00001039
CYAM - Sault Ste Marie, Ontario, Canada
Distance from station: N 56mi, 90km
Updated: 12/19/2018 8:00am
Mostly cloudy
Mostly cloudy
 Wind from E
Wind: E 5 mph , 7 km/h
Temperature: 23°F , -5°C
Wind Chill: 17°F , -8°C
Dew Point: 23°F , -5°C
Humidity: 100%
Barometer: 29.78 inHg , 1008.5 hPa
Clouds: Mostly cloudy
Visibility: 10 miles , 16 km
Cloud details: Few Clouds 17000 ft
Mostly cloudy 23000 ft
Mostly cloudy 24000 ft
2018/12/19 13:00 CYAM 191300Z 08004KT 10SM FEW170 BKN230 BKN240 M05/M05 A2978 RMK AC2CI3CI2 FROIN SLP098
 
KSJX - Beaver Island, Michigan, USA
Distance from station: W 60mi, 96km
Updated: 12/19/2018 8:55am
Clear
Clear
 Wind from SW
Wind: SW 12 mph , 19 km/h, Gust: 18 mph , 30 km/h
Temperature: 39°F , 4°C
Wind Chill: 32°F , 0°C
Dew Point: 34°F , 1°C
Humidity: 81%
Barometer: 29.78 inHg , 1008.5 hPa
Clouds: Clear
Visibility: 10 miles , 16 km
2018/12/19 13:55 KSJX 191355Z AUTO 22010G16KT 10SM CLR 04/01 A2978 RMK AO2 T00360006
KACB - Bellaire, Michigan, USA
Distance from station: SW 63mi, 102km
Updated: 12/19/2018 8:56am
Clear
Clear
 Wind from S
Wind: S 5 mph , 7 km/h
Temperature: 36°F , 2°C
Wind Chill: 32°F , 0°C
Dew Point: 28°F , -2°C
Humidity: 75%
Barometer: 29.83 inHg , 1010.2 hPa
Clouds: Clear
Visibility: 10 miles , 16 km
2018/12/19 13:56 KACB 191356Z AUTO 19004KT 10SM CLR 02/M02 A2983 RMK AO2 T00201016
 
CWNL - Great Duck Island, Ontario, Canada
Distance from station: E 66mi, 106km
Updated: 12/19/2018 8:00am

 Wind from WSW
Wind: WSW 14 mph , 22 km/h
Temperature: 37°F , 3°C
Wind Chill: 28°F , -2°C
Dew Point: 34°F , 1°C
Humidity: 87%
2018/12/19 13:00 CWNL 191300Z AUTO 25012KT 03/01 RMK AO1 PK WND 25017/1204 SLP111 T00320005 56008
KERY - Newberry, Michigan, USA
Distance from station: NW 69mi, 112km
Updated: 12/19/2018 8:55am
Clear
Clear
 Wind from SSW
Wind: SSW 8 mph , 13 km/h
Temperature: 34°F , 1°C
Wind Chill: 27°F , -3°C
Dew Point: 32°F , 0°C
Humidity: 93%
Barometer: 29.75 inHg , 1007.5 hPa
Clouds: Clear
Visibility: 7 miles , 11 km
2018/12/19 13:55 KERY 191355Z AUTO 20007KT 7SM CLR 01/00 A2975 RMK AO2 T00081001
 
KGOV - Grayling Af, Michigan, USA
Distance from station: SSW 70mi, 113km
Updated: 12/18/2018 4:58pm
NOT Current
Clear
Clear
 Wind from S
Wind: S 6 mph , 9 km/h
Temperature: 28°F , -2°C
Wind Chill: 21°F , -6°C
Dew Point: 21°F , -6°C
Humidity: 74%
Barometer: 30.04 inHg , 1017.3 hPa
Clouds: Clear
Visibility: 10 miles , 16 km
2018/12/18 21:58 KGOV 182158Z AUTO 19005KT 10SM CLR M02/M06 A3004 RMK AO2 SLP195 T10161062 PNO $